createdAt,value
2018-12-16T00:00:04.944Z,98013.45
2018-12-16T00:02:34.179Z,98010.42
2018-12-16T00:05:03.783Z,98014.99
2018-12-16T00:07:32.993Z,98009.38
2018-12-16T00:10:02.832Z,98011.83
2018-12-16T00:12:32.024Z,98006.39
2018-12-16T00:15:01.169Z,97998.79
2018-12-16T00:17:30.419Z,98005.30
2018-12-16T00:19:59.526Z,97998.62
2018-12-16T00:22:29.965Z,97996.62
2018-12-16T00:24:59.960Z,97987.93
2018-12-16T00:27:29.076Z,97989.45
2018-12-16T00:29:58.900Z,97984.44
2018-12-16T00:32:28.184Z,97979.75
2018-12-16T00:34:57.349Z,97979.12
2018-12-16T00:37:27.028Z,97976.41
2018-12-16T00:39:56.155Z,97970.52
2018-12-16T00:42:25.288Z,97967.59
2018-12-16T00:44:55.048Z,97973.30
2018-12-16T00:47:24.295Z,97971.79
2018-12-16T00:49:54.260Z,97965.41
2018-12-16T00:52:24.108Z,97970.11
2018-12-16T00:54:53.337Z,97973.86
2018-12-16T00:57:22.544Z,97969.94
2018-12-16T00:59:51.821Z,97963.28
2018-12-16T01:05:12.252Z,97961.72
2018-12-16T01:07:41.548Z,97966.80
2018-12-16T01:10:11.359Z,97958.75
2018-12-16T01:12:40.732Z,97954.83
2018-12-16T01:15:10.111Z,97953.36
2018-12-16T01:17:40.448Z,97949.19
2018-12-16T01:20:09.700Z,97950.34
2018-12-16T01:22:43.433Z,97947.83
2018-12-16T01:25:10.052Z,97945.13
2018-12-16T01:27:39.197Z,97953.56
2018-12-16T01:30:08.573Z,97943.73
2018-12-16T01:32:38.376Z,97945.31
2018-12-16T01:35:08.095Z,97938.60
2018-12-16T01:37:38.017Z,97943.28
2018-12-16T01:40:08.685Z,97936.03
2018-12-16T01:42:37.931Z,97926.94
2018-12-16T01:45:07.269Z,97922.50
2018-12-16T01:47:36.864Z,97921.11
2018-12-16T01:50:06.553Z,97907.42
2018-12-16T01:52:35.744Z,97909.45
2018-12-16T01:55:06.600Z,97905.38
2018-12-16T01:57:35.795Z,97905.38
2018-12-16T02:00:08.048Z,97908.91
2018-12-16T02:02:37.209Z,97902.11
2018-12-16T02:05:06.980Z,97907.10
2018-12-16T02:07:36.240Z,97903.47
2018-12-16T02:10:07.733Z,97903.61
2018-12-16T02:12:36.880Z,97901.22
2018-12-16T02:15:06.525Z,97893.88
2018-12-16T02:17:35.672Z,97888.75
2018-12-16T02:20:06.498Z,97890.13
2018-12-16T02:22:35.698Z,97878.78
2018-12-16T02:25:08.025Z,97874.23
2018-12-16T02:27:37.137Z,97870.41
2018-12-16T02:32:54.782Z,97859.74
2018-12-16T02:35:24.073Z,97856.58
2018-12-16T02:37:53.284Z,97855.69
2018-12-16T02:40:22.485Z,97839.66
2018-12-16T02:42:51.764Z,97844.89
2018-12-16T02:45:21.044Z,97841.84
2018-12-16T02:47:50.335Z,97839.12
2018-12-16T02:50:19.576Z,97833.80
2018-12-16T02:52:48.764Z,97833.56
2018-12-16T02:55:18.045Z,97834.02
2018-12-16T02:57:47.317Z,97825.29
2018-12-16T03:00:16.420Z,97826.17
2018-12-16T03:02:45.675Z,97829.81
2018-12-16T03:05:14.948Z,97831.06
2018-12-16T03:07:44.132Z,97823.47
2018-12-16T03:10:13.308Z,97816.41
2018-12-16T03:12:42.450Z,97816.17
2018-12-16T03:15:11.664Z,97810.17
2018-12-16T03:17:40.917Z,97812.09
2018-12-16T03:20:10.175Z,97806.19
2018-12-16T03:22:39.463Z,97795.55
2018-12-16T03:25:08.741Z,97794.95
2018-12-16T03:27:38.375Z,97788.95
2018-12-16T03:30:10.023Z,97782.05
2018-12-16T03:32:39.390Z,97778.87
2018-12-16T03:35:08.720Z,97773.74
2018-12-16T03:37:38.041Z,97767.73
2018-12-16T03:40:07.486Z,97760.03
2018-12-16T03:42:46.191Z,97758.78
2018-12-16T03:45:15.537Z,97749.61
2018-12-16T03:47:44.919Z,97743.58
2018-12-16T03:50:14.196Z,97739.48
2018-12-16T03:52:43.376Z,97735.95
2018-12-16T03:55:12.582Z,97724.63
2018-12-16T03:57:41.730Z,97727.70
2018-12-16T04:00:11.101Z,97725.08
2018-12-16T04:02:40.396Z,97722.70
2018-12-16T04:05:09.684Z,97721.44
2018-12-16T04:07:38.877Z,97712.92
2018-12-16T04:10:08.189Z,97706.34
2018-12-16T04:12:37.444Z,97706.12
2018-12-16T04:15:09.187Z,97706.77
2018-12-16T04:17:38.328Z,97690.54
2018-12-16T04:20:07.569Z,97689.16
2018-12-16T04:22:36.901Z,97682.46
2018-12-16T04:25:06.359Z,97682.76
2018-12-16T04:27:36.400Z,97673.37
2018-12-16T04:30:06.848Z,97677.66
2018-12-16T04:32:36.120Z,97680.05
2018-12-16T04:35:06.381Z,97669.27
2018-12-16T04:37:35.497Z,97663.16
2018-12-16T04:40:05.148Z,97662.05
2018-12-16T04:42:34.281Z,97665.80
2018-12-16T04:45:03.504Z,97664.51
2018-12-16T04:47:33.168Z,97665.64
2018-12-16T04:50:02.386Z,97676.00
2018-12-16T04:52:31.541Z,97678.05
2018-12-16T04:55:01.222Z,97670.82
2018-12-16T04:57:30.360Z,97659.88
2018-12-16T04:59:59.502Z,97658.02
2018-12-16T05:02:28.820Z,97650.77
2018-12-16T05:04:57.935Z,97651.95
2018-12-16T05:07:27.068Z,97643.80
2018-12-16T05:12:49.740Z,97651.27
2018-12-16T05:15:19.404Z,97655.89
2018-12-16T05:17:48.559Z,97646.16
2018-12-16T05:20:17.784Z,97648.87
2018-12-16T05:22:47.540Z,97647.97
2018-12-16T05:25:16.691Z,97641.86
2018-12-16T05:27:45.858Z,97636.08
2018-12-16T05:30:15.487Z,97624.39
2018-12-16T05:32:44.630Z,97627.66
2018-12-16T05:35:13.876Z,97628.69
2018-12-16T05:37:43.052Z,97635.51
2018-12-16T05:40:12.352Z,97628.58
2018-12-16T05:42:41.593Z,97633.67
2018-12-16T05:45:10.900Z,97627.78
2018-12-16T05:47:40.055Z,97624.34
2018-12-16T05:50:09.332Z,97624.48
2018-12-16T05:52:38.479Z,97629.13
2018-12-16T05:55:07.692Z,97628.02
2018-12-16T05:57:36.841Z,97633.33
2018-12-16T06:00:06.670Z,97637.96
2018-12-16T06:02:35.838Z,97638.16
2018-12-16T06:05:06.680Z,97632.95
2018-12-16T06:07:36.808Z,97624.92
2018-12-16T06:10:06.872Z,97630.94
2018-12-16T06:12:36.206Z,97625.57
2018-12-16T06:15:06.199Z,97618.77
2018-12-16T06:17:35.413Z,97619.30
2018-12-16T06:20:04.851Z,97620.19
2018-12-16T06:22:34.016Z,97615.33
2018-12-16T06:25:03.232Z,97612.84
2018-12-16T06:27:32.452Z,97614.64
2018-12-16T06:30:01.783Z,97622.86
2018-12-16T06:32:31.004Z,97629.30
2018-12-16T06:35:00.140Z,97624.73
2018-12-16T06:37:29.360Z,97621.53
2018-12-16T06:39:59.130Z,97629.75
2018-12-16T06:42:28.359Z,97622.84
2018-12-16T06:44:57.540Z,97622.94
2018-12-16T06:47:26.716Z,97610.68
2018-12-16T06:49:55.861Z,97612.02
2018-12-16T06:52:25.752Z,97606.06
2018-12-16T06:54:54.888Z,97607.63
2018-12-16T06:57:24.692Z,97600.70
2018-12-16T06:59:53.837Z,97601.24
2018-12-16T07:02:22.985Z,97601.41
2018-12-16T07:04:52.120Z,97593.96
2018-12-16T07:07:21.743Z,97586.33
2018-12-16T07:09:50.897Z,97591.46
2018-12-16T07:12:20.054Z,97591.83
2018-12-16T07:14:49.235Z,97603.81
2018-12-16T07:17:18.395Z,97607.45
2018-12-16T07:19:47.708Z,97614.08
2018-12-16T07:22:16.966Z,97610.68
2018-12-16T07:24:46.644Z,97618.44
2018-12-16T07:27:15.856Z,97620.89
2018-12-16T07:29:45.067Z,97633.92
2018-12-16T07:32:15.271Z,97630.66
2018-12-16T07:34:44.494Z,97625.77
2018-12-16T07:37:18.975Z,97622.46
2018-12-16T07:39:47.037Z,97622.42
2018-12-16T07:42:16.260Z,97625.66
2018-12-16T07:44:45.377Z,97634.12
2018-12-16T07:47:15.197Z,97642.17
2018-12-16T07:49:44.408Z,97640.64
2018-12-16T07:52:13.635Z,97643.96
2018-12-16T07:54:42.808Z,97648.30
2018-12-16T07:57:11.952Z,97652.86
2018-12-16T07:59:41.140Z,97661.38
2018-12-16T08:02:10.369Z,97663.80
2018-12-16T08:04:39.600Z,97659.52
2018-12-16T08:07:08.737Z,97661.75
2018-12-16T08:09:37.856Z,97663.09
2018-12-16T08:12:07.068Z,97663.09
2018-12-16T08:14:36.607Z,97664.13
2018-12-16T08:17:05.940Z,97668.61
2018-12-16T08:19:35.069Z,97665.52
2018-12-16T08:22:04.221Z,97666.90
2018-12-16T08:24:33.356Z,97671.13
2018-12-16T08:27:02.575Z,97668.91
2018-12-16T08:29:31.880Z,97672.52
2018-12-16T08:32:01.343Z,97672.19
2018-12-16T08:34:30.536Z,97671.91
2018-12-16T08:36:59.713Z,97672.17
2018-12-16T08:39:28.847Z,97680.09
2018-12-16T08:41:58.075Z,97680.09
2018-12-16T08:44:27.694Z,97681.02
2018-12-16T08:46:57.730Z,97679.30
2018-12-16T08:49:27.525Z,97678.56
2018-12-16T08:51:56.680Z,97675.87
2018-12-16T08:54:30.101Z,97678.63
2018-12-16T08:56:57.281Z,97681.41
2018-12-16T08:59:26.470Z,97673.64
2018-12-16T09:01:55.590Z,97683.14
2018-12-16T09:04:25.726Z,97683.55
2018-12-16T09:06:55.028Z,97689.99
2018-12-16T09:09:24.900Z,97685.66
2018-12-16T09:11:54.121Z,97691.25
2018-12-16T09:14:23.426Z,97691.53
2018-12-16T09:16:53.698Z,97693.26
2018-12-16T09:19:23.159Z,97694.32
2018-12-16T09:21:52.299Z,97684.47
2018-12-16T09:24:21.502Z,97687.00
2018-12-16T09:26:51.120Z,97680.77
2018-12-16T09:29:20.480Z,97679.46
2018-12-16T09:31:49.636Z,97681.56
2018-12-16T09:34:18.760Z,97688.95
2018-12-16T09:36:47.866Z,97682.16
2018-12-16T09:39:17.076Z,97700.48
2018-12-16T09:41:46.652Z,97704.01
2018-12-16T09:44:16.056Z,97695.28
2018-12-16T09:46:45.220Z,97701.22
2018-12-16T09:49:14.776Z,97699.53
2018-12-16T09:51:44.202Z,97693.84
2018-12-16T09:54:13.392Z,97689.91
2018-12-16T09:56:43.012Z,97692.09
2018-12-16T09:59:12.379Z,97692.88
2018-12-16T10:01:41.659Z,97691.08
2018-12-16T10:04:10.963Z,97692.03
2018-12-16T10:06:40.219Z,97692.15
2018-12-16T10:09:10.147Z,97700.41
2018-12-16T10:11:39.820Z,97698.08
2018-12-16T10:14:09.040Z,97696.94
2018-12-16T10:16:41.234Z,97704.47
2018-12-16T10:19:10.420Z,97707.16
2018-12-16T10:21:39.837Z,97710.94
2018-12-16T10:24:09.076Z,97711.80
2018-12-16T10:26:38.369Z,97704.35
2018-12-16T10:29:07.723Z,97705.55
2018-12-16T10:31:36.932Z,97694.23
2018-12-16T10:34:06.492Z,97704.52
2018-12-16T10:36:41.618Z,97706.09
2018-12-16T10:39:10.745Z,97703.98
2018-12-16T10:41:39.868Z,97698.25
2018-12-16T10:44:09.073Z,97693.52
2018-12-16T10:46:38.588Z,97695.67
2018-12-16T10:49:08.440Z,97700.30
2018-12-16T10:51:37.669Z,97697.55
2018-12-16T10:54:06.869Z,97708.11
2018-12-16T10:56:36.269Z,97709.84
2018-12-16T10:59:05.885Z,97716.22
2018-12-16T11:01:35.149Z,97711.85
2018-12-16T11:04:04.475Z,97712.97
2018-12-16T11:06:34.237Z,97709.45
2018-12-16T11:09:03.605Z,97709.27
2018-12-16T11:11:40.056Z,97707.28
2018-12-16T11:17:09.956Z,97707.36
2018-12-16T11:19:39.172Z,97701.41
2018-12-16T11:22:08.366Z,97694.48
2018-12-16T11:24:37.487Z,97694.23
2018-12-16T11:27:06.605Z,97693.30
2018-12-16T11:29:36.561Z,97691.12
2018-12-16T11:32:05.900Z,97692.05
2018-12-16T11:34:35.121Z,97687.14
2018-12-16T11:37:04.701Z,97685.91
2018-12-16T11:39:33.979Z,97681.12
2018-12-16T11:42:04.316Z,97677.48
2018-12-16T11:44:33.416Z,97664.88
2018-12-16T11:47:02.688Z,97675.66
2018-12-16T11:49:31.926Z,97672.66
2018-12-16T11:52:02.839Z,97671.55
2018-12-16T11:54:32.088Z,97666.17
2018-12-16T11:57:01.640Z,97666.77
2018-12-16T11:59:30.816Z,97667.30
2018-12-16T12:02:00.582Z,97661.77
2018-12-16T12:04:30.658Z,97668.78
2018-12-16T12:07:01.449Z,97670.38
2018-12-16T12:09:30.783Z,97667.35
2018-12-16T12:12:00.038Z,97666.18
2018-12-16T12:14:29.521Z,97674.75
2018-12-16T12:16:59.385Z,97677.71
2018-12-16T12:19:39.570Z,97677.84
2018-12-16T12:22:09.396Z,97676.94
2018-12-16T12:24:38.893Z,97675.42
2018-12-16T12:27:08.264Z,97678.13
2018-12-16T12:29:37.385Z,97678.20
2018-12-16T12:32:06.585Z,97677.56
2018-12-16T12:34:35.731Z,97667.51
2018-12-16T12:37:05.295Z,97667.05
2018-12-16T12:39:34.643Z,97664.58
2018-12-16T12:42:04.311Z,97665.70
2018-12-16T12:44:33.438Z,97661.42
2018-12-16T12:47:02.845Z,97666.44
2018-12-16T12:49:32.417Z,97661.50
2018-12-16T12:52:01.592Z,97661.02
2018-12-16T12:54:31.144Z,97659.91
2018-12-16T12:57:00.275Z,97657.32
2018-12-16T12:59:29.468Z,97654.19
2018-12-16T13:01:58.920Z,97652.28
2018-12-16T13:04:28.709Z,97658.11
2018-12-16T13:06:57.928Z,97659.19
2018-12-16T13:09:27.160Z,97671.41
2018-12-16T13:11:57.126Z,97667.80
2018-12-16T13:14:26.745Z,97670.41
2018-12-16T13:16:56.090Z,97665.78
2018-12-16T13:19:25.923Z,97673.87
2018-12-16T13:21:55.163Z,97671.34
2018-12-16T13:24:24.427Z,97671.83
2018-12-16T13:26:55.621Z,97677.08
2018-12-16T13:29:24.849Z,97679.46
2018-12-16T13:31:54.788Z,97674.71
2018-12-16T13:34:24.569Z,97675.84
2018-12-16T13:36:54.545Z,97677.66
2018-12-16T13:39:23.696Z,97682.11
2018-12-16T13:41:53.063Z,97687.40
2018-12-16T13:44:22.224Z,97684.42
2018-12-16T13:46:51.990Z,97690.39
2018-12-16T13:49:21.199Z,97690.80
2018-12-16T13:51:50.548Z,97684.69
2018-12-16T13:54:20.204Z,97691.74
2018-12-16T13:56:49.341Z,97687.16
2018-12-16T13:59:18.464Z,97695.84
2018-12-16T14:01:47.576Z,97694.11
2018-12-16T14:04:16.696Z,97701.05
2018-12-16T14:06:46.315Z,97703.70
2018-12-16T14:09:15.615Z,97707.61
2018-12-16T14:11:45.052Z,97710.56
2018-12-16T14:14:14.215Z,97715.64
2018-12-16T14:16:43.680Z,97712.81
2018-12-16T14:19:13.630Z,97721.37
2018-12-16T14:21:42.801Z,97724.32
2018-12-16T14:24:18.560Z,97721.92
2018-12-16T14:26:48.336Z,97730.14
2018-12-16T14:29:17.592Z,97732.97
2018-12-16T14:31:46.752Z,97733.14
2018-12-16T14:34:16.448Z,97732.71
2018-12-16T14:36:45.726Z,97726.72
2018-12-16T14:39:15.511Z,97727.20
2018-12-16T14:41:44.689Z,97723.09
2018-12-16T14:44:14.187Z,97733.98
2018-12-16T14:46:43.511Z,97735.39
2018-12-16T14:49:12.771Z,97736.44
2018-12-16T14:51:42.013Z,97738.30
2018-12-16T14:54:11.893Z,97735.92
2018-12-16T14:56:42.588Z,97736.42
2018-12-16T14:59:11.706Z,97731.11
2018-12-16T15:01:41.543Z,97731.28
2018-12-16T15:04:10.800Z,97738.60
2018-12-16T15:06:40.369Z,97747.21
2018-12-16T15:09:10.437Z,97752.06
2018-12-16T15:11:39.713Z,97755.72
2018-12-16T15:14:10.493Z,97754.91
2018-12-16T15:16:41.078Z,97752.98
2018-12-16T15:19:10.245Z,97758.55
2018-12-16T15:21:40.161Z,97763.47
2018-12-16T15:24:10.272Z,97763.02
2018-12-16T15:26:39.696Z,97770.02
2018-12-16T15:29:08.833Z,97774.35
2018-12-16T15:31:38.084Z,97784.02
2018-12-16T15:34:08.032Z,97783.80
2018-12-16T15:36:37.297Z,97787.70
2018-12-16T15:39:08.216Z,97786.25
2018-12-16T15:41:37.359Z,97781.56
2018-12-16T15:44:06.671Z,97787.29
2018-12-16T15:46:35.969Z,97784.83
2018-12-16T15:49:05.404Z,97787.80
2018-12-16T15:51:34.707Z,97790.88
2018-12-16T15:54:03.913Z,97796.80
2018-12-16T15:56:33.144Z,97794.70
2018-12-16T15:59:02.255Z,97788.60
2018-12-16T16:01:31.481Z,97795.34
2018-12-16T16:04:01.288Z,97804.50
2018-12-16T16:06:30.665Z,97813.12
2018-12-16T16:09:00.253Z,97813.50
2018-12-16T16:11:30.256Z,97808.66
2018-12-16T16:13:59.372Z,97801.17
2018-12-16T16:16:28.569Z,97799.84
2018-12-16T16:18:57.782Z,97796.13
2018-12-16T16:21:26.911Z,97796.54
2018-12-16T16:23:56.271Z,97805.89
2018-12-16T16:26:25.474Z,97808.80
2018-12-16T16:28:54.612Z,97799.68
2018-12-16T16:31:24.592Z,97799.11
2018-12-16T16:33:54.389Z,97809.73
2018-12-16T16:36:23.516Z,97812.95
2018-12-16T16:38:52.818Z,97812.17
2018-12-16T16:41:22.064Z,97810.16
2018-12-16T16:43:51.741Z,97803.55
2018-12-16T16:46:20.865Z,97815.78
2018-12-16T16:48:50.128Z,97812.87
2018-12-16T16:51:19.356Z,97814.67
2018-12-16T16:53:48.671Z,97817.09
2018-12-16T16:56:22.986Z,97822.47
2018-12-16T16:58:49.191Z,97825.00
2018-12-16T17:01:19.462Z,97825.83
2018-12-16T17:03:49.410Z,97819.45
2018-12-16T17:06:19.088Z,97826.63
2018-12-16T17:08:48.427Z,97822.51
2018-12-16T17:11:18.120Z,97823.66
2018-12-16T17:13:48.027Z,97828.70
2018-12-16T17:16:17.382Z,97824.27
2018-12-16T17:18:48.729Z,97822.23
2018-12-16T17:21:18.808Z,97822.88
2018-12-16T17:23:47.988Z,97823.58
2018-12-16T17:26:17.340Z,97825.53
2018-12-16T17:28:47.256Z,97831.70
2018-12-16T17:31:16.664Z,97840.75
2018-12-16T17:33:45.840Z,97837.02
2018-12-16T17:36:15.076Z,97833.73
2018-12-16T17:38:44.186Z,97835.82
2018-12-16T17:41:13.934Z,97837.21
2018-12-16T17:43:47.911Z,97840.83
2018-12-16T17:46:17.215Z,97840.17
2018-12-16T17:48:47.083Z,97848.21
2018-12-16T17:51:17.080Z,97840.14
2018-12-16T17:53:47.099Z,97840.07
2018-12-16T17:56:16.648Z,97844.78
2018-12-16T17:58:45.822Z,97842.15
2018-12-16T18:01:14.972Z,97846.86
2018-12-16T18:03:44.151Z,97846.48
2018-12-16T18:06:13.240Z,97840.58
2018-12-16T18:08:42.468Z,97847.03
2018-12-16T18:11:12.254Z,97845.95
2018-12-16T18:13:41.479Z,97849.18
2018-12-16T18:16:10.689Z,97857.06
2018-12-16T18:18:40.272Z,97855.25
2018-12-16T18:21:09.432Z,97862.11
2018-12-16T18:23:38.596Z,97860.12
2018-12-16T18:26:07.904Z,97866.56
2018-12-16T18:28:42.960Z,97866.42
2018-12-16T18:31:12.116Z,97865.08
2018-12-16T18:33:41.249Z,97870.95
2018-12-16T18:36:10.658Z,97867.56
2018-12-16T18:38:39.896Z,97871.42
2018-12-16T18:41:09.736Z,97871.44
2018-12-16T18:43:39.631Z,97873.47
2018-12-16T18:46:09.474Z,97873.89
2018-12-16T18:48:38.693Z,97877.03
2018-12-16T18:51:08.648Z,97880.81
2018-12-16T18:53:37.772Z,97881.76
2018-12-16T18:56:08.164Z,97876.55
2018-12-16T18:58:37.464Z,97883.73
2018-12-16T19:01:07.513Z,97886.02
2018-12-16T19:03:37.309Z,97892.41
2018-12-16T19:06:07.672Z,97890.75
2018-12-16T19:08:37.140Z,97892.72
2018-12-16T19:11:07.104Z,97894.70
2018-12-16T19:13:36.238Z,97894.76
2018-12-16T19:16:05.560Z,97896.16
2018-12-16T19:18:35.761Z,97898.41
2018-12-16T19:21:05.089Z,97903.80
2018-12-16T19:23:35.900Z,97902.93
2018-12-16T19:26:06.088Z,97909.91
2018-12-16T19:28:35.321Z,97909.99
2018-12-16T19:31:04.681Z,97910.74
2018-12-16T19:33:33.991Z,97906.44
2018-12-16T19:36:03.112Z,97915.72
2018-12-16T19:38:32.731Z,97919.75
2018-12-16T19:41:02.128Z,97912.55
2018-12-16T19:43:31.385Z,97919.02
2018-12-16T19:46:00.524Z,97918.09
2018-12-16T19:48:29.920Z,97920.87
2018-12-16T19:50:59.433Z,97925.62
2018-12-16T19:53:28.592Z,97922.73
2018-12-16T19:55:57.712Z,97920.34
2018-12-16T19:58:27.303Z,97916.55
2018-12-16T20:00:56.425Z,97912.06
2018-12-16T20:03:25.651Z,97920.37
2018-12-16T20:06:00.000Z,97920.08
2018-12-16T20:08:29.133Z,97918.06
2018-12-16T20:10:58.624Z,97918.75
2018-12-16T20:13:28.640Z,97916.31
2018-12-16T20:16:01.507Z,97911.16
2018-12-16T20:18:29.556Z,97917.95
2018-12-16T20:20:58.766Z,97909.64
2018-12-16T20:23:28.012Z,97909.81
2018-12-16T20:25:57.227Z,97905.37
2018-12-16T20:28:26.344Z,97911.97
2018-12-16T20:30:55.509Z,97907.28
2018-12-16T20:33:24.624Z,97908.34
2018-12-16T20:35:53.795Z,97907.59
2018-12-16T20:38:25.056Z,97904.41
2018-12-16T20:40:55.016Z,97902.44
2018-12-16T20:43:24.342Z,97904.37
2018-12-16T20:45:54.011Z,97904.87
2018-12-16T20:48:23.128Z,97904.13
2018-12-16T20:50:52.326Z,97902.45
2018-12-16T20:53:21.632Z,97907.06
2018-12-16T20:55:51.529Z,97903.30
2018-12-16T20:58:20.768Z,97895.47
2018-12-16T21:00:49.964Z,97895.80
2018-12-16T21:03:19.487Z,97887.66
2018-12-16T21:05:48.588Z,97885.28
2018-12-16T21:08:17.717Z,97890.37
2018-12-16T21:10:46.928Z,97899.07
2018-12-16T21:13:21.444Z,97895.20
2018-12-16T21:15:56.476Z,97895.23
2018-12-16T21:18:29.173Z,97896.66
2018-12-16T21:20:58.317Z,97902.65
2018-12-16T21:23:28.292Z,97904.00
2018-12-16T21:25:57.426Z,97902.88
2018-12-16T21:28:26.972Z,97898.66
2018-12-16T21:30:56.097Z,97902.88
2018-12-16T21:33:25.264Z,97910.66
2018-12-16T21:35:54.469Z,97913.65
2018-12-16T21:38:23.619Z,97910.38
2018-12-16T21:40:52.828Z,97912.37
2018-12-16T21:43:23.308Z,97909.72
2018-12-16T21:45:52.514Z,97913.98
2018-12-16T21:48:21.728Z,97914.36
2018-12-16T21:50:51.460Z,97923.59
2018-12-16T21:53:20.620Z,97921.28
2018-12-16T21:55:50.558Z,97920.73
2018-12-16T21:58:19.751Z,97920.32
2018-12-16T22:00:49.571Z,97924.41
2018-12-16T22:03:19.644Z,97935.34
2018-12-16T22:05:50.122Z,97932.44
2018-12-16T22:08:19.765Z,97933.65
2018-12-16T22:10:48.999Z,97935.25
2018-12-16T22:13:18.127Z,97944.00
2018-12-16T22:15:47.495Z,97941.68
2018-12-16T22:18:16.623Z,97944.55
2018-12-16T22:20:46.330Z,97945.73
2018-12-16T22:23:15.491Z,97945.17
2018-12-16T22:25:44.650Z,97946.98
2018-12-16T22:28:13.813Z,97945.06
2018-12-16T22:33:20.905Z,97956.17
2018-12-16T22:35:50.592Z,97956.09
2018-12-16T22:38:19.809Z,97956.80
2018-12-16T22:40:49.565Z,97960.25
2018-12-16T22:43:18.765Z,97965.94
2018-12-16T22:45:47.881Z,97963.44
2018-12-16T22:48:17.152Z,97960.25
2018-12-16T22:50:46.380Z,97963.81
2018-12-16T22:53:15.761Z,97964.59
2018-12-16T22:55:44.900Z,97968.36
2018-12-16T22:58:14.102Z,97969.81
2018-12-16T23:00:50.016Z,97966.52
2018-12-16T23:03:19.590Z,97962.70
2018-12-16T23:05:48.751Z,97963.25
2018-12-16T23:08:18.113Z,97968.13
2018-12-16T23:10:47.832Z,97959.61
2018-12-16T23:13:17.148Z,97959.10
2018-12-16T23:15:46.356Z,97957.56
2018-12-16T23:18:15.592Z,97955.54
2018-12-16T23:20:44.973Z,97961.42
2018-12-16T23:23:14.176Z,97959.23
2018-12-16T23:25:43.308Z,97963.75
2018-12-16T23:28:13.293Z,97959.79
2018-12-16T23:30:42.968Z,97958.34
2018-12-16T23:33:12.269Z,97955.78
2018-12-16T23:35:41.417Z,97953.22
2018-12-16T23:38:11.236Z,97950.01
2018-12-16T23:40:41.140Z,97953.22
2018-12-16T23:43:10.270Z,97954.85
2018-12-16T23:45:39.941Z,97955.02
2018-12-16T23:48:09.265Z,97952.03
2018-12-16T23:50:38.896Z,97952.09
2018-12-16T23:53:08.112Z,97953.97
2018-12-16T23:55:37.245Z,97955.16
2018-12-16T23:58:06.791Z,97954.05
